sensor_id;sensor_type;location;lat;lon;timestamp;P1;durP1;ratioP1;P2;durP2;ratioP2
76727;SDS011;65652;53.132;18.026;2024-02-21T00:01:26;11.30;;;3.40;;
76727;SDS011;65652;53.132;18.026;2024-02-21T00:03:53;19.00;;;5.00;;
76727;SDS011;65652;53.132;18.026;2024-02-21T00:06:20;14.60;;;4.50;;
76727;SDS011;65652;53.132;18.026;2024-02-21T00:08:46;11.00;;;3.70;;
76727;SDS011;65652;53.132;18.026;2024-02-21T00:11:13;13.60;;;3.70;;
76727;SDS011;65652;53.132;18.026;2024-02-21T00:13:40;16.90;;;4.40;;
76727;SDS011;65652;53.132;18.026;2024-02-21T00:16:07;12.20;;;3.80;;
76727;SDS011;65652;53.132;18.026;2024-02-21T00:18:34;12.30;;;3.80;;
76727;SDS011;65652;53.132;18.026;2024-02-21T00:21:00;17.60;;;5.10;;
76727;SDS011;65652;53.132;18.026;2024-02-21T00:23:28;14.90;;;4.30;;
76727;SDS011;65652;53.132;18.026;2024-02-21T00:25:55;12.40;;;4.00;;
76727;SDS011;65652;53.132;18.026;2024-02-21T00:28:22;13.30;;;4.40;;
76727;SDS011;65652;53.132;18.026;2024-02-21T00:30:49;16.60;;;5.00;;
76727;SDS011;65652;53.132;18.026;2024-02-21T00:33:17;14.00;;;4.40;;
76727;SDS011;65652;53.132;18.026;2024-02-21T00:35:43;13.00;;;3.90;;
76727;SDS011;65652;53.132;18.026;2024-02-21T00:38:10;9.90;;;3.70;;
76727;SDS011;65652;53.132;18.026;2024-02-21T00:40:37;11.90;;;4.10;;
76727;SDS011;65652;53.132;18.026;2024-02-21T00:43:04;15.00;;;5.20;;
76727;SDS011;65652;53.132;18.026;2024-02-21T00:45:31;16.80;;;4.60;;
76727;SDS011;65652;53.132;18.026;2024-02-21T00:47:57;14.70;;;4.40;;
76727;SDS011;65652;53.132;18.026;2024-02-21T00:50:24;17.50;;;4.70;;
76727;SDS011;65652;53.132;18.026;2024-02-21T00:52:51;14.60;;;4.70;;
76727;SDS011;65652;53.132;18.026;2024-02-21T00:55:18;13.90;;;4.00;;
76727;SDS011;65652;53.132;18.026;2024-02-21T00:57:45;14.10;;;3.50;;
76727;SDS011;65652;53.132;18.026;2024-02-21T01:00:12;13.90;;;4.20;;
76727;SDS011;65652;53.132;18.026;2024-02-21T01:02:39;12.60;;;3.90;;
76727;SDS011;65652;53.132;18.026;2024-02-21T01:05:06;11.80;;;3.90;;
76727;SDS011;65652;53.132;18.026;2024-02-21T01:07:33;17.10;;;4.70;;
76727;SDS011;65652;53.132;18.026;2024-02-21T01:10:00;15.60;;;4.50;;
76727;SDS011;65652;53.132;18.026;2024-02-21T01:12:26;10.10;;;3.80;;
76727;SDS011;65652;53.132;18.026;2024-02-21T01:14:53;12.40;;;3.40;;
76727;SDS011;65652;53.132;18.026;2024-02-21T01:17:20;8.80;;;3.10;;
76727;SDS011;65652;53.132;18.026;2024-02-21T01:19:47;14.40;;;4.10;;
76727;SDS011;65652;53.132;18.026;2024-02-21T01:22:14;15.90;;;4.10;;
76727;SDS011;65652;53.132;18.026;2024-02-21T01:24:42;14.80;;;4.00;;
76727;SDS011;65652;53.132;18.026;2024-02-21T01:27:09;9.80;;;3.30;;
76727;SDS011;65652;53.132;18.026;2024-02-21T01:29:36;17.80;;;4.60;;
76727;SDS011;65652;53.132;18.026;2024-02-21T01:32:02;14.10;;;4.00;;
76727;SDS011;65652;53.132;18.026;2024-02-21T01:34:30;14.40;;;4.20;;
76727;SDS011;65652;53.132;18.026;2024-02-21T01:36:56;13.60;;;4.70;;
76727;SDS011;65652;53.132;18.026;2024-02-21T01:39:23;18.00;;;4.70;;
76727;SDS011;65652;53.132;18.026;2024-02-21T01:41:50;13.40;;;4.50;;
76727;SDS011;65652;53.132;18.026;2024-02-21T01:44:17;19.60;;;5.20;;
76727;SDS011;65652;53.132;18.026;2024-02-21T01:46:43;18.50;;;5.70;;
76727;SDS011;65652;53.132;18.026;2024-02-21T01:49:10;14.10;;;4.80;;
76727;SDS011;65652;53.132;18.026;2024-02-21T01:51:37;13.20;;;3.90;;
76727;SDS011;65652;53.132;18.026;2024-02-21T01:54:05;17.20;;;5.10;;
76727;SDS011;65652;53.132;18.026;2024-02-21T01:56:32;14.50;;;4.80;;
76727;SDS011;65652;53.132;18.026;2024-02-21T01:58:59;12.70;;;3.80;;
76727;SDS011;65652;53.132;18.026;2024-02-21T02:01:26;14.10;;;3.90;;
76727;SDS011;65652;53.132;18.026;2024-02-21T02:03:53;14.60;;;4.50;;
76727;SDS011;65652;53.132;18.026;2024-02-21T02:08:48;13.90;;;4.00;;
76727;SDS011;65652;53.132;18.026;2024-02-21T02:11:15;17.40;;;4.80;;
76727;SDS011;65652;53.132;18.026;2024-02-21T02:13:43;19.20;;;5.00;;
76727;SDS011;65652;53.132;18.026;2024-02-21T02:16:10;14.40;;;4.40;;
76727;SDS011;65652;53.132;18.026;2024-02-21T02:18:37;18.60;;;6.00;;
76727;SDS011;65652;53.132;18.026;2024-02-21T02:21:05;15.10;;;4.70;;
76727;SDS011;65652;53.132;18.026;2024-02-21T02:23:47;21.10;;;6.00;;
76727;SDS011;65652;53.132;18.026;2024-02-21T02:26:13;14.10;;;4.40;;
76727;SDS011;65652;53.132;18.026;2024-02-21T02:28:40;17.20;;;5.50;;
76727;SDS011;65652;53.132;18.026;2024-02-21T02:31:07;13.90;;;4.70;;
76727;SDS011;65652;53.132;18.026;2024-02-21T02:33:34;17.00;;;4.90;;
76727;SDS011;65652;53.132;18.026;2024-02-21T02:36:01;15.20;;;4.00;;
76727;SDS011;65652;53.132;18.026;2024-02-21T02:38:28;14.60;;;3.80;;
76727;SDS011;65652;53.132;18.026;2024-02-21T02:40:55;15.60;;;4.80;;
76727;SDS011;65652;53.132;18.026;2024-02-21T02:43:21;17.50;;;5.40;;
76727;SDS011;65652;53.132;18.026;2024-02-21T02:45:48;14.40;;;4.20;;
76727;SDS011;65652;53.132;18.026;2024-02-21T02:48:15;17.70;;;4.80;;
76727;SDS011;65652;53.132;18.026;2024-02-21T02:50:42;17.40;;;5.00;;
76727;SDS011;65652;53.132;18.026;2024-02-21T02:53:09;17.80;;;5.10;;
76727;SDS011;65652;53.132;18.026;2024-02-21T02:55:35;18.00;;;5.10;;
76727;SDS011;65652;53.132;18.026;2024-02-21T02:58:02;19.60;;;5.20;;
76727;SDS011;65652;53.132;18.026;2024-02-21T03:00:29;15.90;;;5.20;;
76727;SDS011;65652;53.132;18.026;2024-02-21T03:02:56;18.50;;;4.70;;
76727;SDS011;65652;53.132;18.026;2024-02-21T03:05:23;16.40;;;4.60;;
76727;SDS011;65652;53.132;18.026;2024-02-21T03:07:50;14.20;;;3.50;;
76727;SDS011;65652;53.132;18.026;2024-02-21T03:10:17;17.90;;;3.70;;
76727;SDS011;65652;53.132;18.026;2024-02-21T03:12:44;11.80;;;3.50;;
76727;SDS011;65652;53.132;18.026;2024-02-21T03:15:11;17.20;;;4.60;;
76727;SDS011;65652;53.132;18.026;2024-02-21T03:17:38;18.70;;;5.20;;
76727;SDS011;65652;53.132;18.026;2024-02-21T03:20:05;14.70;;;3.90;;
76727;SDS011;65652;53.132;18.026;2024-02-21T03:22:36;23.20;;;5.40;;
76727;SDS011;65652;53.132;18.026;2024-02-21T03:25:04;14.50;;;5.40;;
76727;SDS011;65652;53.132;18.026;2024-02-21T03:27:32;19.50;;;6.00;;
76727;SDS011;65652;53.132;18.026;2024-02-21T03:29:59;21.90;;;5.40;;
76727;SDS011;65652;53.132;18.026;2024-02-21T03:32:25;16.60;;;5.50;;
76727;SDS011;65652;53.132;18.026;2024-02-21T03:34:52;18.30;;;5.00;;
76727;SDS011;65652;53.132;18.026;2024-02-21T03:37:19;16.70;;;5.30;;
76727;SDS011;65652;53.132;18.026;2024-02-21T03:39:46;18.00;;;5.40;;
76727;SDS011;65652;53.132;18.026;2024-02-21T03:42:13;17.20;;;4.90;;
76727;SDS011;65652;53.132;18.026;2024-02-21T03:44:40;15.00;;;5.80;;
76727;SDS011;65652;53.132;18.026;2024-02-21T03:47:07;15.60;;;5.10;;
76727;SDS011;65652;53.132;18.026;2024-02-21T03:49:37;21.80;;;5.90;;
76727;SDS011;65652;53.132;18.026;2024-02-21T03:52:04;16.50;;;5.60;;
76727;SDS011;65652;53.132;18.026;2024-02-21T03:54:31;17.60;;;5.20;;
76727;SDS011;65652;53.132;18.026;2024-02-21T03:56:58;17.70;;;5.10;;
76727;SDS011;65652;53.132;18.026;2024-02-21T03:59:24;17.90;;;4.90;;
76727;SDS011;65652;53.132;18.026;2024-02-21T04:01:52;18.30;;;5.90;;
76727;SDS011;65652;53.132;18.026;2024-02-21T04:04:19;16.80;;;5.50;;
76727;SDS011;65652;53.132;18.026;2024-02-21T04:06:47;19.50;;;6.30;;
76727;SDS011;65652;53.132;18.026;2024-02-21T04:09:17;12.90;;;4.60;;
76727;SDS011;65652;53.132;18.026;2024-02-21T04:11:44;10.90;;;4.40;;
76727;SDS011;65652;53.132;18.026;2024-02-21T04:14:11;16.90;;;4.80;;
76727;SDS011;65652;53.132;18.026;2024-02-21T04:16:38;18.20;;;4.80;;
76727;SDS011;65652;53.132;18.026;2024-02-21T04:19:05;15.60;;;4.80;;
76727;SDS011;65652;53.132;18.026;2024-02-21T04:21:32;14.10;;;4.20;;
76727;SDS011;65652;53.132;18.026;2024-02-21T04:23:59;14.40;;;4.50;;
76727;SDS011;65652;53.132;18.026;2024-02-21T04:26:26;19.70;;;5.10;;
76727;SDS011;65652;53.132;18.026;2024-02-21T04:28:53;15.30;;;5.20;;
76727;SDS011;65652;53.132;18.026;2024-02-21T04:31:20;18.40;;;5.60;;
76727;SDS011;65652;53.132;18.026;2024-02-21T04:33:47;14.80;;;5.30;;
76727;SDS011;65652;53.132;18.026;2024-02-21T04:36:13;17.10;;;4.80;;
76727;SDS011;65652;53.132;18.026;2024-02-21T04:38:40;14.10;;;4.80;;
76727;SDS011;65652;53.132;18.026;2024-02-21T04:41:07;15.10;;;4.30;;
76727;SDS011;65652;53.132;18.026;2024-02-21T04:43:34;16.30;;;5.10;;
76727;SDS011;65652;53.132;18.026;2024-02-21T04:46:01;17.50;;;5.80;;
76727;SDS011;65652;53.132;18.026;2024-02-21T04:48:28;13.90;;;5.40;;
76727;SDS011;65652;53.132;18.026;2024-02-21T04:50:55;13.00;;;4.20;;
76727;SDS011;65652;53.132;18.026;2024-02-21T04:53:22;15.80;;;4.60;;
76727;SDS011;65652;53.132;18.026;2024-02-21T04:55:49;15.50;;;5.30;;
76727;SDS011;65652;53.132;18.026;2024-02-21T04:58:15;14.80;;;5.50;;
76727;SDS011;65652;53.132;18.026;2024-02-21T05:00:42;15.50;;;5.30;;
76727;SDS011;65652;53.132;18.026;2024-02-21T05:03:09;14.90;;;5.30;;
76727;SDS011;65652;53.132;18.026;2024-02-21T05:05:36;13.70;;;5.20;;
76727;SDS011;65652;53.132;18.026;2024-02-21T05:08:03;13.60;;;4.90;;
76727;SDS011;65652;53.132;18.026;2024-02-21T05:10:30;14.70;;;5.00;;
76727;SDS011;65652;53.132;18.026;2024-02-21T05:12:57;11.10;;;3.90;;
76727;SDS011;65652;53.132;18.026;2024-02-21T05:15:25;19.80;;;5.20;;
76727;SDS011;65652;53.132;18.026;2024-02-21T05:17:52;10.20;;;4.10;;
76727;SDS011;65652;53.132;18.026;2024-02-21T05:20:19;18.10;;;4.90;;
76727;SDS011;65652;53.132;18.026;2024-02-21T05:22:45;16.70;;;6.10;;
76727;SDS011;65652;53.132;18.026;2024-02-21T05:25:12;18.60;;;6.20;;
76727;SDS011;65652;53.132;18.026;2024-02-21T05:27:39;14.70;;;4.90;;
76727;SDS011;65652;53.132;18.026;2024-02-21T05:30:06;18.10;;;4.90;;
76727;SDS011;65652;53.132;18.026;2024-02-21T05:32:33;15.20;;;5.00;;
76727;SDS011;65652;53.132;18.026;2024-02-21T05:35:00;14.20;;;4.50;;
76727;SDS011;65652;53.132;18.026;2024-02-21T05:37:27;20.10;;;5.90;;
76727;SDS011;65652;53.132;18.026;2024-02-21T05:39:54;16.00;;;4.70;;
76727;SDS011;65652;53.132;18.026;2024-02-21T05:42:21;15.20;;;4.80;;
76727;SDS011;65652;53.132;18.026;2024-02-21T05:44:48;14.40;;;4.80;;
76727;SDS011;65652;53.132;18.026;2024-02-21T05:47:14;10.90;;;3.30;;
76727;SDS011;65652;53.132;18.026;2024-02-21T05:49:41;13.50;;;5.10;;
76727;SDS011;65652;53.132;18.026;2024-02-21T05:52:08;13.60;;;4.70;;
76727;SDS011;65652;53.132;18.026;2024-02-21T05:54:37;12.00;;;5.10;;
76727;SDS011;65652;53.132;18.026;2024-02-21T05:57:05;13.50;;;5.30;;
76727;SDS011;65652;53.132;18.026;2024-02-21T05:59:33;18.00;;;5.40;;
76727;SDS011;65652;53.132;18.026;2024-02-21T06:02:02;20.80;;;6.50;;
76727;SDS011;65652;53.132;18.026;2024-02-21T06:04:30;15.10;;;5.50;;
76727;SDS011;65652;53.132;18.026;2024-02-21T06:06:57;15.20;;;5.10;;
76727;SDS011;65652;53.132;18.026;2024-02-21T06:09:24;13.50;;;4.80;;
76727;SDS011;65652;53.132;18.026;2024-02-21T06:11:51;15.80;;;5.10;;
76727;SDS011;65652;53.132;18.026;2024-02-21T06:14:18;15.40;;;5.90;;
76727;SDS011;65652;53.132;18.026;2024-02-21T06:16:46;21.10;;;6.50;;
76727;SDS011;65652;53.132;18.026;2024-02-21T06:19:13;16.80;;;5.40;;
76727;SDS011;65652;53.132;18.026;2024-02-21T06:21:39;17.60;;;5.90;;
76727;SDS011;65652;53.132;18.026;2024-02-21T06:24:06;16.00;;;5.40;;
76727;SDS011;65652;53.132;18.026;2024-02-21T06:26:33;16.80;;;6.20;;
76727;SDS011;65652;53.132;18.026;2024-02-21T06:29:00;21.30;;;5.50;;
76727;SDS011;65652;53.132;18.026;2024-02-21T06:31:28;15.50;;;4.60;;
76727;SDS011;65652;53.132;18.026;2024-02-21T06:33:55;19.20;;;5.90;;
76727;SDS011;65652;53.132;18.026;2024-02-21T06:36:22;18.40;;;5.70;;
76727;SDS011;65652;53.132;18.026;2024-02-21T06:38:49;15.40;;;5.00;;
76727;SDS011;65652;53.132;18.026;2024-02-21T06:41:16;20.20;;;6.60;;
76727;SDS011;65652;53.132;18.026;2024-02-21T06:43:45;20.40;;;5.70;;
76727;SDS011;65652;53.132;18.026;2024-02-21T06:46:22;17.70;;;5.40;;
76727;SDS011;65652;53.132;18.026;2024-02-21T06:48:50;19.00;;;6.80;;
76727;SDS011;65652;53.132;18.026;2024-02-21T06:51:17;20.50;;;8.00;;
76727;SDS011;65652;53.132;18.026;2024-02-21T06:53:45;16.60;;;5.90;;
76727;SDS011;65652;53.132;18.026;2024-02-21T06:56:11;18.60;;;5.80;;
76727;SDS011;65652;53.132;18.026;2024-02-21T06:58:38;21.30;;;7.70;;
76727;SDS011;65652;53.132;18.026;2024-02-21T07:01:06;25.10;;;8.40;;
76727;SDS011;65652;53.132;18.026;2024-02-21T07:03:33;26.60;;;7.80;;
76727;SDS011;65652;53.132;18.026;2024-02-21T07:06:00;16.40;;;5.90;;
76727;SDS011;65652;53.132;18.026;2024-02-21T07:08:27;22.60;;;6.60;;
76727;SDS011;65652;53.132;18.026;2024-02-21T07:10:54;18.40;;;6.90;;
76727;SDS011;65652;53.132;18.026;2024-02-21T07:13:20;26.70;;;8.20;;
76727;SDS011;65652;53.132;18.026;2024-02-21T07:15:49;14.70;;;5.80;;
76727;SDS011;65652;53.132;18.026;2024-02-21T07:18:16;23.80;;;6.60;;
76727;SDS011;65652;53.132;18.026;2024-02-21T07:20:42;19.10;;;5.90;;
76727;SDS011;65652;53.132;18.026;2024-02-21T07:23:09;18.00;;;5.50;;
76727;SDS011;65652;53.132;18.026;2024-02-21T07:25:36;15.10;;;5.90;;
76727;SDS011;65652;53.132;18.026;2024-02-21T07:28:03;24.30;;;8.00;;
76727;SDS011;65652;53.132;18.026;2024-02-21T07:30:30;17.30;;;6.20;;
76727;SDS011;65652;53.132;18.026;2024-02-21T07:32:57;14.60;;;5.90;;
76727;SDS011;65652;53.132;18.026;2024-02-21T07:35:23;18.40;;;6.90;;
76727;SDS011;65652;53.132;18.026;2024-02-21T07:37:50;18.10;;;6.20;;
76727;SDS011;65652;53.132;18.026;2024-02-21T07:40:17;17.50;;;5.40;;
76727;SDS011;65652;53.132;18.026;2024-02-21T07:42:44;21.00;;;6.40;;
76727;SDS011;65652;53.132;18.026;2024-02-21T07:45:11;19.50;;;6.00;;
76727;SDS011;65652;53.132;18.026;2024-02-21T07:47:38;24.70;;;7.60;;
76727;SDS011;65652;53.132;18.026;2024-02-21T07:50:05;22.40;;;6.60;;
76727;SDS011;65652;53.132;18.026;2024-02-21T07:55:01;19.50;;;6.40;;
76727;SDS011;65652;53.132;18.026;2024-02-21T07:57:27;18.80;;;6.30;;
76727;SDS011;65652;53.132;18.026;2024-02-21T07:59:54;24.70;;;7.60;;
76727;SDS011;65652;53.132;18.026;2024-02-21T08:02:21;20.00;;;6.20;;
76727;SDS011;65652;53.132;18.026;2024-02-21T08:04:48;18.90;;;5.80;;
76727;SDS011;65652;53.132;18.026;2024-02-21T08:07:15;16.50;;;5.20;;
76727;SDS011;65652;53.132;18.026;2024-02-21T08:09:41;15.60;;;5.60;;
76727;SDS011;65652;53.132;18.026;2024-02-21T08:12:08;15.90;;;4.90;;
76727;SDS011;65652;53.132;18.026;2024-02-21T08:14:35;18.70;;;6.80;;
76727;SDS011;65652;53.132;18.026;2024-02-21T08:17:02;19.00;;;7.10;;
76727;SDS011;65652;53.132;18.026;2024-02-21T08:19:30;19.10;;;6.10;;
76727;SDS011;65652;53.132;18.026;2024-02-21T08:21:57;16.10;;;5.60;;
76727;SDS011;65652;53.132;18.026;2024-02-21T08:24:24;18.60;;;6.20;;
76727;SDS011;65652;53.132;18.026;2024-02-21T08:26:51;16.70;;;5.10;;
76727;SDS011;65652;53.132;18.026;2024-02-21T08:29:17;21.20;;;5.80;;
76727;SDS011;65652;53.132;18.026;2024-02-21T08:31:44;15.80;;;5.90;;
76727;SDS011;65652;53.132;18.026;2024-02-21T08:34:11;15.00;;;5.90;;
76727;SDS011;65652;53.132;18.026;2024-02-21T08:36:39;20.70;;;6.60;;
76727;SDS011;65652;53.132;18.026;2024-02-21T08:39:06;19.00;;;6.00;;
76727;SDS011;65652;53.132;18.026;2024-02-21T08:41:35;15.10;;;4.40;;
76727;SDS011;65652;53.132;18.026;2024-02-21T08:44:02;15.40;;;5.40;;
76727;SDS011;65652;53.132;18.026;2024-02-21T08:46:29;19.00;;;6.70;;
76727;SDS011;65652;53.132;18.026;2024-02-21T08:48:56;17.40;;;6.60;;
76727;SDS011;65652;53.132;18.026;2024-02-21T08:51:23;13.50;;;5.60;;
76727;SDS011;65652;53.132;18.026;2024-02-21T08:53:50;17.20;;;6.40;;
76727;SDS011;65652;53.132;18.026;2024-02-21T08:56:18;15.70;;;5.90;;
76727;SDS011;65652;53.132;18.026;2024-02-21T08:58:45;22.30;;;6.50;;
76727;SDS011;65652;53.132;18.026;2024-02-21T09:01:12;20.50;;;6.00;;
76727;SDS011;65652;53.132;18.026;2024-02-21T09:03:39;18.60;;;6.60;;
76727;SDS011;65652;53.132;18.026;2024-02-21T09:06:06;23.70;;;8.10;;
76727;SDS011;65652;53.132;18.026;2024-02-21T09:08:33;19.80;;;6.00;;
76727;SDS011;65652;53.132;18.026;2024-02-21T09:11:01;16.20;;;5.70;;
76727;SDS011;65652;53.132;18.026;2024-02-21T09:13:28;13.70;;;5.40;;
76727;SDS011;65652;53.132;18.026;2024-02-21T09:15:55;18.50;;;7.20;;
76727;SDS011;65652;53.132;18.026;2024-02-21T09:18:22;14.40;;;5.90;;
76727;SDS011;65652;53.132;18.026;2024-02-21T09:20:49;18.60;;;5.80;;
76727;SDS011;65652;53.132;18.026;2024-02-21T09:23:16;19.10;;;5.90;;
76727;SDS011;65652;53.132;18.026;2024-02-21T09:25:43;17.30;;;5.90;;
76727;SDS011;65652;53.132;18.026;2024-02-21T09:28:10;19.00;;;6.80;;
76727;SDS011;65652;53.132;18.026;2024-02-21T09:30:37;17.50;;;6.70;;
76727;SDS011;65652;53.132;18.026;2024-02-21T09:33:04;16.20;;;6.20;;
76727;SDS011;65652;53.132;18.026;2024-02-21T09:35:31;16.30;;;6.30;;
76727;SDS011;65652;53.132;18.026;2024-02-21T09:38:00;15.40;;;5.80;;
76727;SDS011;65652;53.132;18.026;2024-02-21T09:40:27;15.70;;;5.60;;
76727;SDS011;65652;53.132;18.026;2024-02-21T09:43:04;14.00;;;5.80;;
76727;SDS011;65652;53.132;18.026;2024-02-21T09:45:34;17.80;;;6.80;;
76727;SDS011;65652;53.132;18.026;2024-02-21T09:48:12;17.80;;;6.90;;
76727;SDS011;65652;53.132;18.026;2024-02-21T09:50:52;16.40;;;6.30;;
76727;SDS011;65652;53.132;18.026;2024-02-21T09:53:22;17.30;;;6.40;;
76727;SDS011;65652;53.132;18.026;2024-02-21T09:55:51;15.60;;;5.60;;
76727;SDS011;65652;53.132;18.026;2024-02-21T09:58:18;16.10;;;6.10;;
76727;SDS011;65652;53.132;18.026;2024-02-21T10:00:45;15.50;;;5.70;;
76727;SDS011;65652;53.132;18.026;2024-02-21T10:03:12;16.20;;;6.30;;
76727;SDS011;65652;53.132;18.026;2024-02-21T10:05:45;20.20;;;6.80;;
76727;SDS011;65652;53.132;18.026;2024-02-21T10:08:19;13.10;;;5.30;;
76727;SDS011;65652;53.132;18.026;2024-02-21T10:10:46;13.10;;;6.00;;
76727;SDS011;65652;53.132;18.026;2024-02-21T10:13:26;18.10;;;7.30;;
76727;SDS011;65652;53.132;18.026;2024-02-21T10:16:03;15.30;;;5.80;;
76727;SDS011;65652;53.132;18.026;2024-02-21T10:18:32;18.40;;;7.20;;
76727;SDS011;65652;53.132;18.026;2024-02-21T10:21:06;13.80;;;5.40;;
76727;SDS011;65652;53.132;18.026;2024-02-21T10:23:46;15.30;;;5.90;;
76727;SDS011;65652;53.132;18.026;2024-02-21T10:26:15;16.70;;;5.70;;
76727;SDS011;65652;53.132;18.026;2024-02-21T10:28:43;16.80;;;6.90;;
76727;SDS011;65652;53.132;18.026;2024-02-21T10:31:21;13.20;;;5.70;;
76727;SDS011;65652;53.132;18.026;2024-02-21T10:33:56;16.70;;;6.60;;
76727;SDS011;65652;53.132;18.026;2024-02-21T10:36:24;15.20;;;6.30;;
76727;SDS011;65652;53.132;18.026;2024-02-21T10:38:51;15.70;;;5.80;;
76727;SDS011;65652;53.132;18.026;2024-02-21T10:41:20;17.90;;;6.70;;
76727;SDS011;65652;53.132;18.026;2024-02-21T10:46:22;13.70;;;5.70;;
76727;SDS011;65652;53.132;18.026;2024-02-21T10:49:01;13.40;;;5.40;;
76727;SDS011;65652;53.132;18.026;2024-02-21T10:51:29;14.20;;;5.90;;
76727;SDS011;65652;53.132;18.026;2024-02-21T10:56:56;16.10;;;6.00;;
76727;SDS011;65652;53.132;18.026;2024-02-21T10:59:24;12.00;;;5.30;;
76727;SDS011;65652;53.132;18.026;2024-02-21T11:04:19;14.50;;;6.10;;
76727;SDS011;65652;53.132;18.026;2024-02-21T11:06:46;19.60;;;7.90;;
76727;SDS011;65652;53.132;18.026;2024-02-21T11:09:13;14.80;;;5.60;;
76727;SDS011;65652;53.132;18.026;2024-02-21T11:11:41;15.00;;;6.60;;
76727;SDS011;65652;53.132;18.026;2024-02-21T11:14:11;17.20;;;5.80;;
76727;SDS011;65652;53.132;18.026;2024-02-21T11:16:44;14.60;;;5.10;;
76727;SDS011;65652;53.132;18.026;2024-02-21T11:19:21;11.90;;;4.80;;
76727;SDS011;65652;53.132;18.026;2024-02-21T11:21:49;11.20;;;6.10;;
76727;SDS011;65652;53.132;18.026;2024-02-21T11:24:26;14.30;;;6.10;;
76727;SDS011;65652;53.132;18.026;2024-02-21T11:27:13;15.70;;;6.50;;
76727;SDS011;65652;53.132;18.026;2024-02-21T11:29:48;14.80;;;6.10;;
76727;SDS011;65652;53.132;18.026;2024-02-21T11:32:21;13.60;;;6.20;;
76727;SDS011;65652;53.132;18.026;2024-02-21T11:35:01;16.70;;;6.60;;
76727;SDS011;65652;53.132;18.026;2024-02-21T11:37:32;15.50;;;6.50;;
76727;SDS011;65652;53.132;18.026;2024-02-21T11:42:27;14.10;;;5.50;;
76727;SDS011;65652;53.132;18.026;2024-02-21T11:44:56;14.70;;;5.30;;
76727;SDS011;65652;53.132;18.026;2024-02-21T11:47:23;16.40;;;7.10;;
76727;SDS011;65652;53.132;18.026;2024-02-21T11:49:51;13.80;;;6.30;;
76727;SDS011;65652;53.132;18.026;2024-02-21T11:52:21;15.00;;;6.10;;
76727;SDS011;65652;53.132;18.026;2024-02-21T11:54:51;14.80;;;6.30;;
76727;SDS011;65652;53.132;18.026;2024-02-21T11:57:18;15.20;;;5.90;;
76727;SDS011;65652;53.132;18.026;2024-02-21T11:59:45;11.90;;;4.70;;
76727;SDS011;65652;53.132;18.026;2024-02-21T12:02:13;14.60;;;6.80;;
76727;SDS011;65652;53.132;18.026;2024-02-21T12:04:41;12.90;;;6.20;;
76727;SDS011;65652;53.132;18.026;2024-02-21T12:07:10;15.50;;;6.50;;
76727;SDS011;65652;53.132;18.026;2024-02-21T12:09:37;16.80;;;6.10;;
76727;SDS011;65652;53.132;18.026;2024-02-21T12:12:04;15.40;;;6.90;;
76727;SDS011;65652;53.132;18.026;2024-02-21T12:14:32;13.90;;;6.10;;
76727;SDS011;65652;53.132;18.026;2024-02-21T12:17:01;13.90;;;5.60;;
76727;SDS011;65652;53.132;18.026;2024-02-21T12:19:32;12.10;;;5.10;;
76727;SDS011;65652;53.132;18.026;2024-02-21T12:22:01;11.30;;;4.80;;
76727;SDS011;65652;53.132;18.026;2024-02-21T12:24:28;10.70;;;4.80;;
76727;SDS011;65652;53.132;18.026;2024-02-21T12:26:56;12.50;;;4.90;;
76727;SDS011;65652;53.132;18.026;2024-02-21T12:29:25;9.30;;;4.00;;
76727;SDS011;65652;53.132;18.026;2024-02-21T12:31:52;12.70;;;5.80;;
76727;SDS011;65652;53.132;18.026;2024-02-21T12:34:21;14.10;;;6.40;;
76727;SDS011;65652;53.132;18.026;2024-02-21T12:39:16;11.90;;;4.80;;
76727;SDS011;65652;53.132;18.026;2024-02-21T12:41:42;18.70;;;7.40;;
76727;SDS011;65652;53.132;18.026;2024-02-21T12:44:10;14.10;;;6.20;;
76727;SDS011;65652;53.132;18.026;2024-02-21T12:49:06;12.80;;;5.50;;
76727;SDS011;65652;53.132;18.026;2024-02-21T12:51:34;12.80;;;5.60;;
76727;SDS011;65652;53.132;18.026;2024-02-21T12:54:01;12.50;;;5.00;;
76727;SDS011;65652;53.132;18.026;2024-02-21T12:56:31;14.20;;;6.30;;
76727;SDS011;65652;53.132;18.026;2024-02-21T12:58:58;15.50;;;6.10;;
76727;SDS011;65652;53.132;18.026;2024-02-21T13:01:25;13.70;;;6.30;;
76727;SDS011;65652;53.132;18.026;2024-02-21T13:03:53;10.80;;;4.50;;
76727;SDS011;65652;53.132;18.026;2024-02-21T13:06:20;16.50;;;6.20;;
76727;SDS011;65652;53.132;18.026;2024-02-21T13:08:47;12.70;;;5.00;;
76727;SDS011;65652;53.132;18.026;2024-02-21T13:11:14;13.10;;;5.50;;
76727;SDS011;65652;53.132;18.026;2024-02-21T13:13:41;13.00;;;4.80;;
76727;SDS011;65652;53.132;18.026;2024-02-21T13:16:08;13.30;;;5.30;;
76727;SDS011;65652;53.132;18.026;2024-02-21T13:18:35;15.70;;;6.60;;
76727;SDS011;65652;53.132;18.026;2024-02-21T13:21:04;12.90;;;5.50;;
76727;SDS011;65652;53.132;18.026;2024-02-21T13:23:31;14.80;;;6.40;;
76727;SDS011;65652;53.132;18.026;2024-02-21T13:25:58;15.80;;;6.40;;
76727;SDS011;65652;53.132;18.026;2024-02-21T13:28:25;13.90;;;6.50;;
76727;SDS011;65652;53.132;18.026;2024-02-21T13:30:53;14.70;;;6.70;;
76727;SDS011;65652;53.132;18.026;2024-02-21T13:33:19;16.30;;;6.60;;
76727;SDS011;65652;53.132;18.026;2024-02-21T13:35:46;16.50;;;6.20;;
76727;SDS011;65652;53.132;18.026;2024-02-21T13:38:13;13.10;;;6.30;;
76727;SDS011;65652;53.132;18.026;2024-02-21T13:40:40;19.00;;;7.80;;
76727;SDS011;65652;53.132;18.026;2024-02-21T13:43:08;15.50;;;7.00;;
76727;SDS011;65652;53.132;18.026;2024-02-21T13:45:35;16.90;;;7.20;;
76727;SDS011;65652;53.132;18.026;2024-02-21T13:48:03;16.80;;;7.70;;
76727;SDS011;65652;53.132;18.026;2024-02-21T13:50:32;12.50;;;5.40;;
76727;SDS011;65652;53.132;18.026;2024-02-21T13:53:00;14.30;;;6.60;;
76727;SDS011;65652;53.132;18.026;2024-02-21T13:55:27;15.20;;;7.20;;
76727;SDS011;65652;53.132;18.026;2024-02-21T13:57:54;18.00;;;7.40;;
76727;SDS011;65652;53.132;18.026;2024-02-21T14:00:21;14.20;;;7.00;;
76727;SDS011;65652;53.132;18.026;2024-02-21T14:02:48;16.00;;;7.10;;
76727;SDS011;65652;53.132;18.026;2024-02-21T14:05:15;14.90;;;6.40;;
76727;SDS011;65652;53.132;18.026;2024-02-21T14:07:42;17.10;;;7.30;;
76727;SDS011;65652;53.132;18.026;2024-02-21T14:10:08;16.80;;;7.70;;
76727;SDS011;65652;53.132;18.026;2024-02-21T14:12:36;15.50;;;5.60;;
76727;SDS011;65652;53.132;18.026;2024-02-21T14:15:03;14.00;;;6.60;;
76727;SDS011;65652;53.132;18.026;2024-02-21T14:17:31;16.00;;;7.50;;
76727;SDS011;65652;53.132;18.026;2024-02-21T14:19:58;20.80;;;9.20;;
76727;SDS011;65652;53.132;18.026;2024-02-21T14:22:25;15.60;;;6.60;;
76727;SDS011;65652;53.132;18.026;2024-02-21T14:24:52;16.00;;;7.30;;
76727;SDS011;65652;53.132;18.026;2024-02-21T14:27:18;14.00;;;6.20;;
76727;SDS011;65652;53.132;18.026;2024-02-21T14:29:45;12.00;;;5.20;;
76727;SDS011;65652;53.132;18.026;2024-02-21T14:32:12;18.10;;;7.10;;
76727;SDS011;65652;53.132;18.026;2024-02-21T14:34:39;18.60;;;6.40;;
76727;SDS011;65652;53.132;18.026;2024-02-21T14:37:06;15.70;;;7.00;;
76727;SDS011;65652;53.132;18.026;2024-02-21T14:39:33;12.70;;;5.80;;
76727;SDS011;65652;53.132;18.026;2024-02-21T14:42:01;16.90;;;6.50;;
76727;SDS011;65652;53.132;18.026;2024-02-21T14:44:29;14.10;;;6.70;;